Flight Track Log - Related Links

Times and Time Zones

All times are in EST time to prevent confusion due to time zone crossing. See the AXM1574 flight status page for this flight to view local times or setup timezone preferences in your user account.

Time Position Orientation Groundspeed Altitude Reporting Facility
EST Latitude Longitude Course Direction KTS MPH feet Rate Location/Type
Mon 02:40:56 AM 5.9312 116.0486 23° Northeast 145 167  Level FlightAware ADS-B (WBKK / BKI)
Mon 02:41:17 AM 5.9460 116.0550 23° Northeast 168 193 800 2,250 Climbing FlightAware ADS-B (WBKK / BKI)
Mon 02:41:36 AM 5.9602 116.0610 23° Northeast 174 200 1,500 1,500 Climbing FlightAware ADS-B (WBKK / BKI)
Mon 02:41:57 AM 5.9768 116.0680 23° Northeast 201 231 1,800 750 Climbing FlightAware ADS-B (WBKK / BKI)
Mon 02:42:16 AM 5.9946 116.0755 23° Northeast 229 264 2,000 900 Climbing FlightAware ADS-B (WBKK / BKI)
Mon 02:42:37 AM 6.0007 116.0780 23° Northeast 258 297 2,400 1,692 Climbing FlightAware ADS-B (WBKK / BKI)
Mon 02:42:55 AM 6.0368 116.0922 21° North 270 311 3,100 2,167 Climbing FlightAware ADS-B (WBKK / BKI)
Mon 02:43:13 AM 6.0612 116.0947 North 283 326 3,700 2,471 Climbing FlightAware ADS-B (WBKK / BKI)
Mon 02:44:03 AM 6.1270 116.0977 North 289 333 5,900 2,471 Climbing FlightAware ADS-B (WBKK / BKI)
Mon 02:44:38 AM 6.1739 116.1000 North 300 345 7,200 2,509 Climbing FlightAware ADS-B (WBKK / BKI)
Mon 02:44:58 AM 6.2026 116.1014 North 302 348 8,200 2,571 Climbing FlightAware ADS-B (WBKK / BKI)
Mon 02:45:13 AM 6.2220 116.1023 North 305 351 8,700 2,100 Climbing FlightAware ADS-B (WBKK / BKI)
Mon 02:45:38 AM 6.2600 116.1041 North 312 359 9,600 2,129 Climbing FlightAware ADS-B (WBKK / BKI)
Mon 02:46:15 AM 6.3152 116.1067 North 324 373 10,900 1,425 Climbing FlightAware ADS-B (WBKK / BKI)
Mon 02:46:58 AM 6.3832 116.1100 North 361 415 11,500 1,169 Climbing FlightAware ADS-B (WBKK / BKI)
Mon 02:47:32 AM 6.4421 116.1127 North 375 432 12,400 1,595 Climbing FlightAware ADS-B (WBKK / BKI)
Mon 02:48:17 AM 6.5003 116.1155 North 388 447 13,600 1,626 Climbing FlightAware ADS-B (WBKK / BKI)
Mon 02:49:19 AM 6.6361 116.1219 North 401 461 15,300 1,604 Climbing FlightAware ADS-B (WBKK / BKI)
Mon 02:49:58 AM 6.7109 116.1254 North 411 473 16,300 1,671 Climbing FlightAware ADS-B (WBKK / BKI)
Mon 02:50:38 AM 6.7867 116.1289 North 411 473 17,500 1,800 Climbing FlightAware ADS-B (WBKK / BKI)
Mon 02:51:18 AM 6.8623 116.1324 North 409 471 18,700 1,630 Climbing FlightAware ADS-B (WBKK / BKI)
Mon 02:51:59 AM 6.9413 116.1362 North 413 475 19,700 1,575 Climbing FlightAware ADS-B (WBKK / BKI)
Mon 02:52:38 AM 7.0158 116.1397 North 411 473 20,800 1,425 Climbing FlightAware ADS-B (WBKK / BKI)
Mon 02:53:19 AM 7.0941 116.1434 North 415 478 21,600 963 Climbing FlightAware ADS-B (WBKK / BKI)
Mon 02:53:59 AM 7.1726 116.1471 North 428 493 22,100 975 Climbing FlightAware ADS-B (WBKK / BKI)
Mon 02:54:39 AM 7.2534 116.1509 North 432 497 22,900 1,139 Climbing FlightAware ADS-B (WBKK / BKI)
Mon 02:57:56 AM 7.6469 116.1696 North 436 502 26,600 1,071 Climbing FlightAware ADS-B (WBKK / BKI)
Mon 02:59:19 AM 7.8163 116.1776 North 440 506 27,900 829 Climbing FlightAware ADS-B (WBKK / BKI)
Mon 02:59:59 AM 7.8981 116.1816 North 448 516 28,300 900 Climbing FlightAware ADS-B (WBKK / BKI)
Mon 03:00:39 AM 7.9807 116.1853 North 443 510 29,100 1,352 Climbing FlightAware ADS-B (WBKK / BKI)
Mon 03:01:10 AM 8.0413 116.1882 North 436 502 29,900 643 Climbing FlightAware ADS-B (WBKK / BKI)
Mon 03:02:03 AM 8.1527 116.1936 North 440 506 30,000 45 Climbing FlightAware ADS-B (WBKK / BKI)
Mon 03:04:00 AM 8.2739 116.2026 North  Level FlightAware Approximate
Mon 03:05:00 AM 8.3361 116.2072 North  Level FlightAware Approximate
Mon 03:06:00 AM 8.3983 116.2119 North  Level FlightAware Approximate
Mon 03:07:00 AM 8.4605 116.2165 North  Level FlightAware Approximate
Mon 03:08:00 AM 8.5226 116.2211 North  Level FlightAware Approximate
Mon 03:09:00 AM 8.5848 116.2258 North  Level FlightAware Approximate
Mon 03:10:00 AM 8.6463 116.2364 North  Level Estimated
Mon 03:11:00 AM 8.7083 116.2434 North  Level FlightAware Approximate
Mon 03:12:00 AM 8.7702 116.2503 North  Level FlightAware Approximate
Mon 03:13:00 AM 8.8322 116.2573 North  Level FlightAware Approximate
Mon 03:14:00 AM 8.8942 116.2643 North  Level FlightAware Approximate
Mon 03:15:00 AM 8.9561 116.2712 North  Level FlightAware Approximate
Mon 03:16:00 AM 9.0181 116.2782 North  Level FlightAware Approximate
Mon 03:17:00 AM 9.0801 116.2851 North  Level FlightAware Approximate
Mon 03:18:00 AM 9.1420 116.2921 North  Level FlightAware Approximate
Mon 03:19:00 AM 9.2040 116.2991 North  Level FlightAware Approximate
Mon 03:20:00 AM 9.2654 116.3099 North  Level Estimated
Mon 03:21:00 AM 9.3274 116.3173 North  Level FlightAware Approximate
Mon 03:22:00 AM 9.3893 116.3247 North  Level FlightAware Approximate
Mon 03:23:00 AM 9.4512 116.3321 North  Level FlightAware Approximate
Mon 03:24:00 AM 9.5131 116.3396 North  Level FlightAware Approximate
Mon 03:25:00 AM 9.5750 116.3470 North  Level FlightAware Approximate
Mon 03:26:00 AM 9.6370 116.3544 North  Level FlightAware Approximate
Mon 03:27:00 AM 9.6989 116.3619 North  Level FlightAware Approximate
Mon 03:28:00 AM 9.7608 116.3693 North  Level FlightAware Approximate
Mon 03:29:00 AM 9.8227 116.3768 North  Level FlightAware Approximate
Mon 03:30:00 AM 9.8846 116.3842 North  Level FlightAware Approximate
Mon 03:31:00 AM 9.9466 116.3917 North  Level FlightAware Approximate
Mon 03:32:00 AM 10.0085 116.3991 North  Level FlightAware Approximate
Mon 03:33:00 AM 10.0704 116.4066 North  Level FlightAware Approximate
Mon 03:34:00 AM 10.1323 116.4140 North  Level FlightAware Approximate
Mon 03:35:00 AM 10.1942 116.4215 North  Level FlightAware Approximate
Mon 03:36:00 AM 10.2561 116.4289 North  Level FlightAware Approximate
Mon 03:37:00 AM 10.3180 116.4364 North  Level FlightAware Approximate
Mon 03:38:00 AM 10.3799 116.4439 North  Level FlightAware Approximate
Mon 03:39:00 AM 10.4419 116.4513 North  Level FlightAware Approximate
Mon 03:40:00 AM 10.5038 116.4588 North  Level FlightAware Approximate
Mon 03:41:00 AM 10.5657 116.4663 North  Level FlightAware Approximate
Mon 03:42:00 AM 10.6276 116.4738 North  Level FlightAware Approximate
Mon 03:43:00 AM 10.6895 116.4813 North  Level FlightAware Approximate
Mon 03:44:00 AM 10.7514 116.4888 North  Level FlightAware Approximate
Mon 03:45:00 AM 10.8133 116.4962 North  Level FlightAware Approximate
Mon 03:46:00 AM 10.8752 116.5037 North  Level FlightAware Approximate
Mon 03:47:00 AM 10.9371 116.5112 North  Level FlightAware Approximate
Mon 03:48:00 AM 10.9991 116.5187 North  Level FlightAware Approximate
Mon 03:49:00 AM 11.0610 116.5262 North  Level FlightAware Approximate
Mon 03:50:00 AM 11.1229 116.5338 North  Level FlightAware Approximate
Mon 03:51:00 AM 11.1842 116.5450 North  Level Estimated
Mon 03:52:00 AM 11.2462 116.5525 North  Level FlightAware Approximate
Mon 03:53:00 AM 11.3081 116.5600 North  Level FlightAware Approximate
Mon 03:54:00 AM 11.3700 116.5675 North  Level FlightAware Approximate
Mon 03:55:00 AM 11.4319 116.5750 North  Level FlightAware Approximate
Mon 03:56:00 AM 11.4938 116.5825 North  Level FlightAware Approximate
Mon 03:57:00 AM 11.5557 116.5900 North  Level FlightAware Approximate
Mon 03:58:00 AM 11.6176 116.5975 North  Level FlightAware Approximate
Mon 03:59:00 AM 11.6795 116.6050 North  Level FlightAware Approximate
Mon 04:00:00 AM 11.7414 116.6126 North  Level FlightAware Approximate
Mon 04:01:00 AM 11.8033 116.6201 North  Level FlightAware Approximate
Mon 04:02:00 AM 11.8652 116.6276 North  Level FlightAware Approximate
Mon 04:03:00 AM 11.9272 116.6352 North  Level FlightAware Approximate
Mon 04:04:00 AM 11.9891 116.6427 North  Level FlightAware Approximate
Mon 04:05:00 AM 12.0510 116.6503 North  Level FlightAware Approximate
Mon 04:06:00 AM 12.1129 116.6578 North  Level FlightAware Approximate
Mon 04:07:00 AM 12.1748 116.6654 North  Level FlightAware Approximate
Mon 04:08:00 AM 12.2367 116.6729 North  Level FlightAware Approximate
Mon 04:09:00 AM 12.2986 116.6805 North  Level FlightAware Approximate
Mon 04:10:00 AM 12.3605 116.6880 North  Level FlightAware Approximate
Mon 04:11:00 AM 12.4224 116.6956 North  Level FlightAware Approximate
Mon 04:12:00 AM 12.4844 116.7032 North  Level FlightAware Approximate
Mon 04:13:00 AM 12.5463 116.7107 North  Level FlightAware Approximate
Mon 04:14:00 AM 12.6082 116.7183 North  Level FlightAware Approximate
Mon 04:15:00 AM 12.6701 116.7259 North  Level FlightAware Approximate
Mon 04:16:00 AM 12.7320 116.7335 North  Level FlightAware Approximate
Mon 04:17:00 AM 12.7933 116.7451 North  Level Estimated
Mon 04:18:00 AM 12.8552 116.7527 North  Level FlightAware Approximate
Mon 04:19:00 AM 12.9171 116.7602 North  Level FlightAware Approximate
Mon 04:20:00 AM 12.9790 116.7678 North  Level FlightAware Approximate
Mon 04:21:00 AM 13.0409 116.7754 North  Level FlightAware Approximate
Mon 04:22:00 AM 13.1028 116.7829 North  Level FlightAware Approximate
Mon 04:23:00 AM 13.1648 116.7905 North  Level FlightAware Approximate
Mon 04:24:00 AM 13.2267 116.7981 North  Level FlightAware Approximate
Mon 04:25:00 AM 13.2886 116.8056 North  Level FlightAware Approximate
Mon 04:26:00 AM 13.3505 116.8132 North  Level FlightAware Approximate
Mon 04:27:00 AM 13.4124 116.8208 North  Level FlightAware Approximate
Mon 04:28:00 AM 13.4743 116.8284 North  Level FlightAware Approximate
Mon 04:29:00 AM 13.5362 116.8360 North  Level FlightAware Approximate
Mon 04:30:00 AM 13.5981 116.8436 North  Level FlightAware Approximate
Mon 04:31:00 AM 13.6600 116.8512 North  Level FlightAware Approximate
Mon 04:31:17 AM 18.8309 115.9204 North 447 514 34,000  Level FlightAware ADS-B
Mon 04:37:59 AM 19.5987 115.6743 17° North 464 534 34,000  Level FlightAware ADS-B
Mon 04:38:00 AM 19.2225 115.9241 17° North  Level FlightAware Approximate
Mon 04:38:25 AM 19.6201 115.6788 11° North 462 532 34,000  Level FlightAware ADS-B
Mon 04:41:00 AM 19.7703 115.7405 21° North  Level Estimated
Mon 04:42:00 AM 19.8284 115.7645 21° North  Level Estimated
Mon 04:43:00 AM 19.8865 115.7884 21° North  Level Estimated
Mon 04:44:00 AM 19.9447 115.8124 21° North  Level Estimated
Mon 04:45:00 AM 20.0028 115.8364 21° North  Level Estimated
Mon 04:46:00 AM 20.0609 115.8604 21° North  Level Estimated
Mon 04:47:00 AM 20.1190 115.8844 21° North  Level Estimated
Mon 04:48:00 AM 20.1772 115.9084 21° North  Level Estimated
Mon 04:49:00 AM 20.2353 115.9325 21° North  Level Estimated
Mon 04:50:00 AM 20.2934 115.9566 21° North  Level Estimated
Mon 04:51:00 AM 20.3515 115.9806 21° North  Level Estimated
Mon 04:52:00 AM 20.4096 116.0048 21° North  Level Estimated
Mon 04:53:00 AM 20.4677 116.0289 21° North  Level Estimated
Mon 04:54:00 AM 20.5258 116.0530 21° North  Level Estimated
Mon 04:55:00 AM 20.5839 116.0772 21° North  Level Estimated
Mon 04:56:00 AM 20.6420 116.1014 21° North  Level Estimated
Mon 04:57:00 AM 20.7001 116.1256 21° North  Level Estimated
Mon 04:58:00 AM 20.7582 116.1498 21° North  Level Estimated
Mon 04:59:00 AM 20.8163 116.1740 21° North  Level Estimated
Mon 05:00:00 AM 20.8743 116.1983 21° North  Level Estimated
Mon 05:01:00 AM 20.9324 116.2226 21° North  Level Estimated
Mon 05:02:00 AM 20.9905 116.2469 21° North  Level Estimated
Mon 05:03:00 AM 21.0486 116.2712 21° North  Level Estimated
Mon 05:04:00 AM 21.1066 116.2955 21° North  Level Estimated
Mon 05:05:00 AM 21.1647 116.3199 21° North  Level Estimated
Mon 05:06:00 AM 21.2228 116.3442 21° North  Level Estimated
Mon 05:07:00 AM 21.2808 116.3686 21° North  Level Estimated
Mon 05:08:00 AM 21.3389 116.3930 21° North  Level Estimated
Mon 05:09:00 AM 21.3969 116.4175 21° North  Level Estimated
Mon 05:10:00 AM 21.4550 116.4419 21° North  Level Estimated
Mon 05:11:00 AM 21.5130 116.4664 21° North  Level Estimated
Mon 05:12:00 AM 21.5711 116.4909 21° North  Level Estimated
Mon 05:13:00 AM 21.6291 116.5154 21° North  Level Estimated
Mon 05:14:00 AM 21.6871 116.5399 21° North  Level Estimated
Mon 05:15:00 AM 21.7451 116.5645 21° North  Level Estimated
Mon 05:16:00 AM 21.8032 116.5890 21° North  Level Estimated
Mon 05:17:00 AM 21.8612 116.6136 21° North  Level Estimated
Mon 05:18:00 AM 21.9192 116.6382 21° North  Level Estimated
Mon 05:19:00 AM 21.9772 116.6629 21° North  Level Estimated
Mon 05:20:00 AM 22.0352 116.6875 21° North  Level Estimated
Mon 05:21:00 AM 22.0932 116.7122 22° Northeast  Level Estimated
Mon 05:22:00 AM 22.1512 116.7369 22° Northeast  Level Estimated
Mon 05:23:00 AM 22.2092 116.7616 22° Northeast  Level Estimated
Mon 05:24:00 AM 22.2672 116.7863 22° Northeast  Level Estimated
Mon 05:25:00 AM 22.3252 116.8111 22° Northeast  Level Estimated
Mon 05:26:00 AM 22.3832 116.8358 22° Northeast  Level Estimated
Mon 05:27:00 AM 22.4412 116.8606 22° Northeast  Level Estimated
Mon 05:28:00 AM 22.4992 116.8854 22° Northeast  Level Estimated
Mon 05:29:00 AM 22.5572 116.9103 22° Northeast  Level Estimated
Mon 05:30:00 AM 22.6151 116.9351 22° Northeast  Level Estimated
Mon 05:31:00 AM 22.6731 116.9600 22° Northeast  Level Estimated
Mon 05:32:00 AM 22.7311 116.9849 22° Northeast  Level Estimated
Mon 05:33:00 AM 22.7890 117.0098 22° Northeast  Level Estimated
Mon 05:34:00 AM 22.8470 117.0347 22° Northeast  Level Estimated
Mon 05:35:00 AM 22.9049 117.0597 22° Northeast  Level Estimated
Mon 05:36:00 AM 22.9629 117.0847 22° Northeast  Level Estimated
Mon 05:37:00 AM 23.0208 117.1097 22° Northeast  Level Estimated
Mon 05:38:00 AM 23.0788 117.1347 22° Northeast  Level Estimated
Mon 05:39:00 AM 23.1367 117.1597 22° Northeast  Level Estimated
Mon 05:40:00 AM 23.1947 117.1848 22° Northeast  Level Estimated
Mon 05:41:00 AM 23.2526 117.2099 22° Northeast  Level Estimated
Mon 05:42:00 AM 23.3105 117.2350 22° Northeast  Level Estimated
Mon 05:43:00 AM 23.3684 117.2601 22° Northeast  Level Estimated
Mon 05:44:00 AM 23.4263 117.2853 22° Northeast  Level Estimated
Mon 05:45:00 AM 23.4843 117.3104 22° Northeast  Level Estimated
Mon 05:46:00 AM 23.5422 117.3356 22° Northeast  Level Estimated
Mon 05:47:00 AM 23.6001 117.3609 22° Northeast  Level Estimated
Mon 05:48:00 AM 23.6580 117.3861 22° Northeast  Level Estimated
Mon 05:49:00 AM 23.7159 117.4114 22° Northeast  Level Estimated
Mon 05:50:00 AM 23.7738 117.4367 22° Northeast  Level Estimated
Mon 05:51:00 AM 23.8317 117.4620 22° Northeast  Level Estimated
Mon 05:52:00 AM 23.8895 117.4873 22° Northeast  Level Estimated
Mon 05:53:00 AM 23.9474 117.5126 22° Northeast  Level Estimated
Mon 05:54:00 AM 24.0053 117.5380 22° Northeast  Level Estimated
Mon 05:55:00 AM 24.0632 117.5634 22° Northeast  Level Estimated
Mon 05:56:00 AM 24.1210 117.5889 22° Northeast  Level Estimated
Mon 05:57:00 AM 24.1789 117.6143 22° Northeast  Level Estimated
Mon 05:58:00 AM 24.2368 117.6398 22° Northeast  Level Estimated
Mon 05:59:00 AM 24.2946 117.6653 22° Northeast  Level Estimated
Mon 06:00:00 AM 24.3525 117.6908 22° Northeast  Level Estimated
Mon 06:01:00 AM 24.4103 117.7163 22° Northeast  Level Estimated
Mon 06:02:00 AM 24.4682 117.7419 22° Northeast  Level Estimated
Mon 06:03:00 AM 24.5260 117.7674 22° Northeast  Level Estimated
Mon 06:04:00 AM 24.5838 117.7931 22° Northeast  Level Estimated
Mon 06:05:00 AM 24.6417 117.8187 22° Northeast  Level Estimated
Mon 06:06:00 AM 24.6995 117.8444 22° Northeast  Level Estimated
Mon 06:07:00 AM 24.7573 117.8700 22° Northeast  Level Estimated
Mon 06:08:00 AM 24.8151 117.8957 22° Northeast  Level Estimated
Mon 06:09:00 AM 24.8729 117.9215 22° Northeast  Level Estimated
Mon 06:10:00 AM 24.9308 117.9472 22° Northeast  Level Estimated
Mon 06:11:00 AM 24.9886 117.9730 22° Northeast  Level Estimated
Mon 06:12:00 AM 25.0464 117.9988 22° Northeast  Level Estimated
Mon 06:13:00 AM 25.1042 118.0246 22° Northeast  Level Estimated
Mon 06:14:00 AM 25.1619 118.0505 22° Northeast  Level Estimated
Mon 06:15:00 AM 25.2197 118.0763 22° Northeast  Level Estimated
Mon 06:16:00 AM 25.2775 118.1022 22° Northeast  Level Estimated
Mon 06:17:00 AM 25.3353 118.1282 22° Northeast  Level Estimated
Mon 06:18:00 AM 25.3931 118.1541 22° Northeast  Level Estimated
Mon 06:19:00 AM 25.4508 118.1801 22° Northeast  Level Estimated
Mon 06:20:00 AM 25.5086 118.2061 22° Northeast  Level Estimated
Mon 06:21:00 AM 25.5664 118.2321 22° Northeast  Level Estimated
Mon 06:22:00 AM 25.6241 118.2581 22° Northeast  Level Estimated
Mon 06:23:00 AM 25.6819 118.2842 22° Northeast  Level Estimated
Mon 06:24:00 AM 25.7396 118.3103 22° Northeast  Level Estimated
Mon 06:25:00 AM 25.7973 118.3364 22° Northeast  Level Estimated
Mon 06:26:00 AM 25.8551 118.3626 22° Northeast  Level Estimated
Mon 06:27:00 AM 25.9128 118.3887 22° Northeast  Level Estimated
Mon 06:28:00 AM 25.9705 118.4149 22° Northeast  Level Estimated
Mon 06:29:00 AM 26.0282 118.4412 22° Northeast  Level Estimated
Mon 06:30:00 AM 26.0860 118.4674 22° Northeast  Level Estimated
Mon 06:31:00 AM 26.1437 118.4937 22° Northeast  Level Estimated
Mon 06:32:00 AM 26.2014 118.5200 22° Northeast  Level Estimated
Mon 06:33:00 AM 26.2591 118.5463 22° Northeast  Level Estimated
Mon 06:34:00 AM 26.3168 118.5727 22° Northeast  Level Estimated
Mon 06:35:00 AM 26.3745 118.5991 22° Northeast  Level Estimated
Mon 06:36:00 AM 26.4322 118.6255 22° Northeast  Level Estimated
Mon 06:37:00 AM 26.4898 118.6519 22° Northeast  Level Estimated
Mon 06:38:00 AM 26.5475 118.6784 22° Northeast  Level Estimated
Mon 06:39:00 AM 26.6052 118.7049 22° Northeast  Level Estimated
Mon 06:40:00 AM 26.6629 118.7314 22° Northeast  Level Estimated
Mon 06:41:00 AM 26.7205 118.7579 22° Northeast  Level Estimated
Mon 06:42:00 AM 26.7782 118.7845 22° Northeast  Level Estimated
Mon 06:43:00 AM 26.8358 118.8111 22° Northeast  Level Estimated
Mon 06:44:00 AM 26.8935 118.8377 22° Northeast  Level Estimated
Mon 06:45:00 AM 26.9511 118.8644 22° Northeast  Level Estimated
Mon 06:46:00 AM 27.0088 118.8910 22° Northeast  Level Estimated
Mon 06:47:00 AM 27.0664 118.9177 22° Northeast  Level Estimated
Mon 06:48:00 AM 27.1240 118.9445 22° Northeast  Level Estimated
Mon 06:49:00 AM 27.1817 118.9712 22° Northeast  Level Estimated
Mon 06:50:00 AM 27.2393 118.9980 22° Northeast  Level Estimated
Mon 06:51:00 AM 27.2969 119.0248 22° Northeast  Level Estimated
Mon 06:52:00 AM 27.3545 119.0517 22° Northeast  Level Estimated
Mon 06:53:00 AM 27.4121 119.0785 22° Northeast  Level Estimated
Mon 06:54:00 AM 27.4697 119.1054 23° Northeast  Level Estimated
Mon 06:55:00 AM 27.5273 119.1324 23° Northeast  Level Estimated
Mon 06:56:00 AM 27.5849 119.1593 23° Northeast  Level Estimated
Mon 06:57:00 AM 27.6425 119.1863 23° Northeast  Level Estimated
Mon 06:58:00 AM 27.7000 119.2133 23° Northeast  Level Estimated
Mon 06:59:00 AM 27.7576 119.2403 23° Northeast  Level Estimated
Mon 07:00:00 AM 27.8152 119.2674 23° Northeast  Level Estimated
Mon 07:01:00 AM 27.8727 119.2945 23° Northeast  Level Estimated
Mon 07:02:00 AM 27.9303 119.3216 23° Northeast  Level Estimated
Mon 07:03:00 AM 27.9878 119.3488 23° Northeast  Level Estimated
Mon 07:04:00 AM 28.0454 119.3760 23° Northeast  Level Estimated
Mon 07:05:00 AM 28.1029 119.4032 23° Northeast  Level Estimated
Mon 07:06:00 AM 28.1605 119.4304 23° Northeast  Level Estimated
Mon 07:07:00 AM 28.2180 119.4577 23° Northeast  Level Estimated
Mon 07:08:00 AM 28.2755 119.4850 23° Northeast  Level Estimated
Mon 07:09:00 AM 28.3330 119.5123 23° Northeast  Level Estimated
Mon 07:10:00 AM 28.3905 119.5397 23° Northeast  Level Estimated
Mon 07:11:00 AM 28.4480 119.5671 23° Northeast  Level Estimated
Mon 07:12:00 AM 28.5056 119.5945 23° Northeast  Level Estimated
Mon 07:13:00 AM 28.5630 119.6220 23° Northeast  Level Estimated
Mon 07:14:00 AM 28.6205 119.6494 23° Northeast  Level Estimated
Mon 07:15:00 AM 28.6780 119.6769 23° Northeast  Level Estimated
Mon 07:16:00 AM 28.7355 119.7045 23° Northeast  Level Estimated
Mon 07:17:00 AM 28.7930 119.7321 23° Northeast  Level Estimated
Mon 07:18:00 AM 28.8505 119.7597 23° Northeast  Level Estimated
Mon 07:19:00 AM 28.9079 119.7873 23° Northeast  Level Estimated
Mon 07:20:00 AM 28.9654 119.8149 23° Northeast  Level Estimated
Mon 07:21:00 AM 29.0228 119.8426 23° Northeast  Level Estimated
Mon 07:22:00 AM 29.0803 119.8704 23° Northeast  Level Estimated
Mon 07:23:00 AM 29.1377 119.8981 23° Northeast  Level Estimated
Mon 07:24:00 AM 29.1951 119.9259 23° Northeast  Level Estimated
Mon 07:25:00 AM 29.2526 119.9537 23° Northeast  Level Estimated
Mon 07:26:00 AM 29.3100 119.9816 23° Northeast  Level Estimated
Mon 07:27:00 AM 29.3674 120.0095 23° Northeast  Level Estimated
Mon 07:28:00 AM 29.4248 120.0374 23° Northeast  Level Estimated
Mon 07:29:00 AM 29.4822 120.0653 23° Northeast  Level Estimated
Mon 07:30:00 AM 29.5396 120.0933 23° Northeast  Level Estimated
Mon 07:31:00 AM 29.5970 120.1213 23° Northeast  Level Estimated
Mon 07:32:00 AM 29.6544 120.1493 23° Northeast  Level Estimated
Mon 07:33:00 AM 29.7118 120.1774 23° Northeast  Level Estimated
Mon 07:34:00 AM 29.7692 120.2055 23° Northeast  Level Estimated
Mon 07:35:00 AM 29.8265 120.2336 23° Northeast  Level Estimated
Mon 07:36:00 AM 29.8839 120.2618 23° Northeast  Level Estimated
Mon 07:37:00 AM 29.9413 120.2900 23° Northeast  Level Estimated
Mon 07:38:00 AM 29.9986 120.3182 23° Northeast  Level Estimated

Login

Don't have an account? Register now (free) for customized features, flight alerts, and more!